sensor_id;sensor_type;location;lat;lon;timestamp;P1;durP1;ratioP1;P2;durP2;ratioP2
6251;SDS011;3159;52.414;9.784;2023-09-12T00:00:46;8.20;;;7.40;;
6251;SDS011;3159;52.414;9.784;2023-09-12T00:03:18;8.90;;;8.00;;
6251;SDS011;3159;52.414;9.784;2023-09-12T00:05:50;8.53;;;7.63;;
6251;SDS011;3159;52.414;9.784;2023-09-12T00:08:17;8.40;;;7.50;;
6251;SDS011;3159;52.414;9.784;2023-09-12T00:10:44;8.03;;;7.23;;
6251;SDS011;3159;52.414;9.784;2023-09-12T00:13:11;8.43;;;7.63;;
6251;SDS011;3159;52.414;9.784;2023-09-12T00:15:38;11.23;;;7.47;;
6251;SDS011;3159;52.414;9.784;2023-09-12T00:18:05;12.67;;;8.57;;
6251;SDS011;3159;52.414;9.784;2023-09-12T00:20:34;10.77;;;9.47;;
6251;SDS011;3159;52.414;9.784;2023-09-12T00:23:01;13.20;;;9.40;;
6251;SDS011;3159;52.414;9.784;2023-09-12T00:25:30;10.87;;;8.50;;
6251;SDS011;3159;52.414;9.784;2023-09-12T00:27:57;10.47;;;9.10;;
6251;SDS011;3159;52.414;9.784;2023-09-12T00:30:24;8.93;;;8.03;;
6251;SDS011;3159;52.414;9.784;2023-09-12T00:32:51;9.67;;;8.77;;
6251;SDS011;3159;52.414;9.784;2023-09-12T00:35:18;10.10;;;9.10;;
6251;SDS011;3159;52.414;9.784;2023-09-12T00:37:46;9.07;;;8.07;;
6251;SDS011;3159;52.414;9.784;2023-09-12T00:40:13;9.87;;;8.23;;
6251;SDS011;3159;52.414;9.784;2023-09-12T00:42:40;12.67;;;9.10;;
6251;SDS011;3159;52.414;9.784;2023-09-12T00:45:08;10.43;;;8.87;;
6251;SDS011;3159;52.414;9.784;2023-09-12T00:47:35;9.40;;;8.40;;
6251;SDS011;3159;52.414;9.784;2023-09-12T00:50:02;10.30;;;9.00;;
6251;SDS011;3159;52.414;9.784;2023-09-12T00:52:33;9.60;;;8.60;;
6251;SDS011;3159;52.414;9.784;2023-09-12T00:55:04;10.17;;;8.67;;
6251;SDS011;3159;52.414;9.784;2023-09-12T00:57:33;11.07;;;8.93;;
6251;SDS011;3159;52.414;9.784;2023-09-12T01:00:02;9.33;;;8.23;;
6251;SDS011;3159;52.414;9.784;2023-09-12T01:02:35;9.23;;;8.33;;
6251;SDS011;3159;52.414;9.784;2023-09-12T01:05:03;11.17;;;9.00;;
6251;SDS011;3159;52.414;9.784;2023-09-12T01:07:32;13.27;;;9.07;;
6251;SDS011;3159;52.414;9.784;2023-09-12T01:09:59;10.63;;;8.70;;
6251;SDS011;3159;52.414;9.784;2023-09-12T01:12:27;12.83;;;8.97;;
6251;SDS011;3159;52.414;9.784;2023-09-12T01:14:56;12.60;;;8.93;;
6251;SDS011;3159;52.414;9.784;2023-09-12T01:17:23;8.90;;;8.00;;
6251;SDS011;3159;52.414;9.784;2023-09-12T01:19:50;10.23;;;9.00;;
6251;SDS011;3159;52.414;9.784;2023-09-12T01:25:34;10.03;;;8.47;;
6251;SDS011;3159;52.414;9.784;2023-09-12T01:28:18;10.20;;;9.17;;
6251;SDS011;3159;52.414;9.784;2023-09-12T01:30:49;10.47;;;9.37;;
6251;SDS011;3159;52.414;9.784;2023-09-12T01:33:18;10.30;;;8.80;;
6251;SDS011;3159;52.414;9.784;2023-09-12T01:35:45;12.50;;;9.10;;
6251;SDS011;3159;52.414;9.784;2023-09-12T01:38:12;10.00;;;9.00;;
6251;SDS011;3159;52.414;9.784;2023-09-12T01:40:42;10.70;;;8.90;;
6251;SDS011;3159;52.414;9.784;2023-09-12T01:43:12;9.87;;;8.90;;
6251;SDS011;3159;52.414;9.784;2023-09-12T01:45:43;10.83;;;9.40;;
6251;SDS011;3159;52.414;9.784;2023-09-12T01:48:11;13.03;;;9.27;;
6251;SDS011;3159;52.414;9.784;2023-09-12T01:50:43;12.20;;;8.87;;
6251;SDS011;3159;52.414;9.784;2023-09-12T01:53:10;10.43;;;9.23;;
6251;SDS011;3159;52.414;9.784;2023-09-12T01:55:39;12.10;;;9.53;;
6251;SDS011;3159;52.414;9.784;2023-09-12T01:58:07;10.13;;;9.10;;
6251;SDS011;3159;52.414;9.784;2023-09-12T02:00:35;10.70;;;9.60;;
6251;SDS011;3159;52.414;9.784;2023-09-12T02:03:04;12.00;;;9.63;;
6251;SDS011;3159;52.414;9.784;2023-09-12T02:05:31;14.40;;;9.80;;
6251;SDS011;3159;52.414;9.784;2023-09-12T02:08:00;10.57;;;9.40;;
6251;SDS011;3159;52.414;9.784;2023-09-12T02:10:27;12.47;;;9.83;;
6251;SDS011;3159;52.414;9.784;2023-09-12T02:12:54;12.63;;;9.57;;
6251;SDS011;3159;52.414;9.784;2023-09-12T02:15:21;10.50;;;9.07;;
6251;SDS011;3159;52.414;9.784;2023-09-12T02:17:48;11.30;;;9.50;;
6251;SDS011;3159;52.414;9.784;2023-09-12T02:20:17;10.43;;;9.43;;
6251;SDS011;3159;52.414;9.784;2023-09-12T02:22:44;11.60;;;10.50;;
6251;SDS011;3159;52.414;9.784;2023-09-12T02:25:11;12.73;;;10.07;;
6251;SDS011;3159;52.414;9.784;2023-09-12T02:27:38;12.83;;;10.80;;
6251;SDS011;3159;52.414;9.784;2023-09-12T02:30:06;13.57;;;9.43;;
6251;SDS011;3159;52.414;9.784;2023-09-12T02:32:34;12.83;;;10.23;;
6251;SDS011;3159;52.414;9.784;2023-09-12T02:35:01;12.70;;;10.93;;
6251;SDS011;3159;52.414;9.784;2023-09-12T02:37:29;11.60;;;10.47;;
6251;SDS011;3159;52.414;9.784;2023-09-12T02:39:56;12.13;;;10.00;;
6251;SDS011;3159;52.414;9.784;2023-09-12T02:42:23;12.67;;;10.80;;
6251;SDS011;3159;52.414;9.784;2023-09-12T02:44:50;11.90;;;10.63;;
6251;SDS011;3159;52.414;9.784;2023-09-12T02:47:18;11.83;;;10.50;;
6251;SDS011;3159;52.414;9.784;2023-09-12T02:49:45;12.00;;;10.67;;
6251;SDS011;3159;52.414;9.784;2023-09-12T02:52:12;12.07;;;10.23;;
6251;SDS011;3159;52.414;9.784;2023-09-12T02:54:40;12.67;;;10.23;;
6251;SDS011;3159;52.414;9.784;2023-09-12T02:57:07;12.07;;;10.87;;
6251;SDS011;3159;52.414;9.784;2023-09-12T02:59:34;11.27;;;9.90;;
6251;SDS011;3159;52.414;9.784;2023-09-12T03:02:01;13.27;;;11.10;;
6251;SDS011;3159;52.414;9.784;2023-09-12T03:04:29;11.00;;;10.00;;
6251;SDS011;3159;52.414;9.784;2023-09-12T03:06:56;12.53;;;11.33;;
6251;SDS011;3159;52.414;9.784;2023-09-12T03:09:23;12.17;;;10.83;;
6251;SDS011;3159;52.414;9.784;2023-09-12T03:11:51;11.50;;;10.30;;
6251;SDS011;3159;52.414;9.784;2023-09-12T03:14:18;12.20;;;10.93;;
6251;SDS011;3159;52.414;9.784;2023-09-12T03:16:45;14.63;;;10.47;;
6251;SDS011;3159;52.414;9.784;2023-09-12T03:19:12;13.80;;;11.70;;
6251;SDS011;3159;52.414;9.784;2023-09-12T03:21:39;12.50;;;10.57;;
6251;SDS011;3159;52.414;9.784;2023-09-12T03:24:06;11.87;;;10.63;;
6251;SDS011;3159;52.414;9.784;2023-09-12T03:26:33;10.47;;;9.37;;
6251;SDS011;3159;52.414;9.784;2023-09-12T03:29:02;11.70;;;10.50;;
6251;SDS011;3159;52.414;9.784;2023-09-12T03:31:30;11.37;;;10.20;;
6251;SDS011;3159;52.414;9.784;2023-09-12T03:33:58;16.17;;;10.93;;
6251;SDS011;3159;52.414;9.784;2023-09-12T03:36:25;11.20;;;10.07;;
6251;SDS011;3159;52.414;9.784;2023-09-12T03:38:52;12.63;;;11.20;;
6251;SDS011;3159;52.414;9.784;2023-09-12T03:41:19;11.97;;;10.87;;
6251;SDS011;3159;52.414;9.784;2023-09-12T03:43:50;12.27;;;10.83;;
6251;SDS011;3159;52.414;9.784;2023-09-12T03:46:18;12.70;;;11.43;;
6251;SDS011;3159;52.414;9.784;2023-09-12T03:48:45;14.07;;;11.93;;
6251;SDS011;3159;52.414;9.784;2023-09-12T03:51:12;13.10;;;11.73;;
6251;SDS011;3159;52.414;9.784;2023-09-12T03:53:39;13.40;;;11.90;;
6251;SDS011;3159;52.414;9.784;2023-09-12T03:56:06;15.40;;;12.53;;
6251;SDS011;3159;52.414;9.784;2023-09-12T03:58:37;13.70;;;12.10;;
6251;SDS011;3159;52.414;9.784;2023-09-12T04:01:04;14.70;;;13.13;;
6251;SDS011;3159;52.414;9.784;2023-09-12T04:03:32;13.77;;;12.30;;
6251;SDS011;3159;52.414;9.784;2023-09-12T04:05:59;16.30;;;12.43;;
6251;SDS011;3159;52.414;9.784;2023-09-12T04:08:26;14.13;;;12.27;;
6251;SDS011;3159;52.414;9.784;2023-09-12T04:10:53;17.87;;;12.77;;
6251;SDS011;3159;52.414;9.784;2023-09-12T04:13:20;12.07;;;10.90;;
6251;SDS011;3159;52.414;9.784;2023-09-12T04:15:47;13.57;;;11.07;;
6251;SDS011;3159;52.414;9.784;2023-09-12T04:18:14;12.53;;;11.23;;
6251;SDS011;3159;52.414;9.784;2023-09-12T04:20:43;12.60;;;9.53;;
6251;SDS011;3159;52.414;9.784;2023-09-12T04:23:10;12.47;;;9.47;;
6251;SDS011;3159;52.414;9.784;2023-09-12T04:25:37;10.03;;;8.97;;
6251;SDS011;3159;52.414;9.784;2023-09-12T04:28:04;9.57;;;8.33;;
6251;SDS011;3159;52.414;9.784;2023-09-12T04:30:32;9.63;;;7.57;;
6251;SDS011;3159;52.414;9.784;2023-09-12T04:33:00;6.60;;;6.00;;
6251;SDS011;3159;52.414;9.784;2023-09-12T04:35:27;6.77;;;5.90;;
6251;SDS011;3159;52.414;9.784;2023-09-12T04:37:55;6.57;;;5.97;;
6251;SDS011;3159;52.414;9.784;2023-09-12T04:40:22;6.03;;;5.43;;
6251;SDS011;3159;52.414;9.784;2023-09-12T04:42:49;5.83;;;5.23;;
6251;SDS011;3159;52.414;9.784;2023-09-12T04:45:16;6.27;;;5.23;;
6251;SDS011;3159;52.414;9.784;2023-09-12T04:47:43;6.80;;;5.50;;
6251;SDS011;3159;52.414;9.784;2023-09-12T04:50:10;6.27;;;5.77;;
6251;SDS011;3159;52.414;9.784;2023-09-12T04:52:37;5.70;;;5.20;;
6251;SDS011;3159;52.414;9.784;2023-09-12T04:55:06;7.13;;;6.03;;
6251;SDS011;3159;52.414;9.784;2023-09-12T04:57:33;7.20;;;5.90;;
6251;SDS011;3159;52.414;9.784;2023-09-12T05:00:00;7.50;;;6.73;;
6251;SDS011;3159;52.414;9.784;2023-09-12T05:02:27;7.03;;;6.37;;
6251;SDS011;3159;52.414;9.784;2023-09-12T05:04:54;7.50;;;6.37;;
6251;SDS011;3159;52.414;9.784;2023-09-12T05:07:21;6.23;;;5.63;;
6251;SDS011;3159;52.414;9.784;2023-09-12T05:09:48;6.97;;;6.27;;
6251;SDS011;3159;52.414;9.784;2023-09-12T05:12:17;7.43;;;6.00;;
6251;SDS011;3159;52.414;9.784;2023-09-12T05:14:44;8.37;;;5.83;;
6251;SDS011;3159;52.414;9.784;2023-09-12T05:17:12;6.93;;;5.40;;
6251;SDS011;3159;52.414;9.784;2023-09-12T05:19:39;6.73;;;6.03;;
6251;SDS011;3159;52.414;9.784;2023-09-12T05:22:06;6.70;;;5.50;;
6251;SDS011;3159;52.414;9.784;2023-09-12T05:24:32;7.73;;;6.33;;
6251;SDS011;3159;52.414;9.784;2023-09-12T05:26:59;7.20;;;5.90;;
6251;SDS011;3159;52.414;9.784;2023-09-12T05:29:28;9.17;;;6.17;;
6251;SDS011;3159;52.414;9.784;2023-09-12T05:31:55;6.10;;;5.60;;
6251;SDS011;3159;52.414;9.784;2023-09-12T05:34:21;6.50;;;5.87;;
6251;SDS011;3159;52.414;9.784;2023-09-12T05:36:48;6.80;;;5.63;;
6251;SDS011;3159;52.414;9.784;2023-09-12T05:39:16;7.53;;;6.77;;
6251;SDS011;3159;52.414;9.784;2023-09-12T05:41:43;8.70;;;6.30;;
6251;SDS011;3159;52.414;9.784;2023-09-12T05:44:10;7.00;;;6.27;;
6251;SDS011;3159;52.414;9.784;2023-09-12T05:46:44;7.23;;;6.53;;
6251;SDS011;3159;52.414;9.784;2023-09-12T05:49:11;8.40;;;6.10;;
6251;SDS011;3159;52.414;9.784;2023-09-12T05:51:38;9.77;;;6.20;;
6251;SDS011;3159;52.414;9.784;2023-09-12T05:54:05;6.83;;;6.23;;
6251;SDS011;3159;52.414;9.784;2023-09-12T05:56:33;9.43;;;6.80;;
6251;SDS011;3159;52.414;9.784;2023-09-12T05:59:00;9.37;;;6.87;;
6251;SDS011;3159;52.414;9.784;2023-09-12T06:01:27;7.60;;;6.27;;
6251;SDS011;3159;52.414;9.784;2023-09-12T06:03:55;9.23;;;6.67;;
6251;SDS011;3159;52.414;9.784;2023-09-12T06:06:22;7.90;;;5.90;;
6251;SDS011;3159;52.414;9.784;2023-09-12T06:08:49;6.80;;;5.77;;
6251;SDS011;3159;52.414;9.784;2023-09-12T06:11:16;6.47;;;5.20;;
6251;SDS011;3159;52.414;9.784;2023-09-12T06:13:43;7.17;;;4.63;;
6251;SDS011;3159;52.414;9.784;2023-09-12T06:16:10;7.90;;;4.53;;
6251;SDS011;3159;52.414;9.784;2023-09-12T06:18:37;5.70;;;3.73;;
6251;SDS011;3159;52.414;9.784;2023-09-12T06:21:05;5.17;;;3.80;;
6251;SDS011;3159;52.414;9.784;2023-09-12T06:23:33;6.13;;;3.93;;
6251;SDS011;3159;52.414;9.784;2023-09-12T06:26:00;5.47;;;3.77;;
6251;SDS011;3159;52.414;9.784;2023-09-12T06:28:29;6.37;;;4.40;;
6251;SDS011;3159;52.414;9.784;2023-09-12T06:30:56;6.13;;;4.17;;
6251;SDS011;3159;52.414;9.784;2023-09-12T06:33:24;6.83;;;3.90;;
6251;SDS011;3159;52.414;9.784;2023-09-12T06:35:51;5.40;;;3.90;;
6251;SDS011;3159;52.414;9.784;2023-09-12T06:38:21;4.27;;;3.67;;
6251;SDS011;3159;52.414;9.784;2023-09-12T06:40:50;7.20;;;3.87;;
6251;SDS011;3159;52.414;9.784;2023-09-12T06:43:17;7.60;;;4.30;;
6251;SDS011;3159;52.414;9.784;2023-09-12T06:45:44;6.60;;;4.43;;
6251;SDS011;3159;52.414;9.784;2023-09-12T06:48:11;4.60;;;4.07;;
6251;SDS011;3159;52.414;9.784;2023-09-12T06:50:38;6.73;;;4.27;;
6251;SDS011;3159;52.414;9.784;2023-09-12T06:53:05;5.03;;;4.13;;
6251;SDS011;3159;52.414;9.784;2023-09-12T06:55:33;4.87;;;4.00;;
6251;SDS011;3159;52.414;9.784;2023-09-12T06:58:01;5.70;;;4.07;;
6251;SDS011;3159;52.414;9.784;2023-09-12T07:00:28;4.73;;;3.93;;
6251;SDS011;3159;52.414;9.784;2023-09-12T07:02:56;5.50;;;4.37;;
6251;SDS011;3159;52.414;9.784;2023-09-12T07:05:23;7.07;;;4.70;;
6251;SDS011;3159;52.414;9.784;2023-09-12T07:07:50;6.43;;;3.97;;
6251;SDS011;3159;52.414;9.784;2023-09-12T07:10:17;5.80;;;4.20;;
6251;SDS011;3159;52.414;9.784;2023-09-12T07:12:45;5.70;;;4.70;;
6251;SDS011;3159;52.414;9.784;2023-09-12T07:15:12;5.03;;;4.53;;
6251;SDS011;3159;52.414;9.784;2023-09-12T07:17:39;10.23;;;5.10;;
6251;SDS011;3159;52.414;9.784;2023-09-12T07:20:07;6.17;;;5.20;;
6251;SDS011;3159;52.414;9.784;2023-09-12T07:22:38;8.00;;;5.67;;
6251;SDS011;3159;52.414;9.784;2023-09-12T07:25:06;8.33;;;6.27;;
6251;SDS011;3159;52.414;9.784;2023-09-12T07:27:34;8.50;;;6.30;;
6251;SDS011;3159;52.414;9.784;2023-09-12T07:30:03;10.17;;;6.70;;
6251;SDS011;3159;52.414;9.784;2023-09-12T07:32:31;8.63;;;6.73;;
6251;SDS011;3159;52.414;9.784;2023-09-12T07:34:57;11.93;;;8.57;;
6251;SDS011;3159;52.414;9.784;2023-09-12T07:37:25;9.07;;;8.17;;
6251;SDS011;3159;52.414;9.784;2023-09-12T07:39:51;11.03;;;8.23;;
6251;SDS011;3159;52.414;9.784;2023-09-12T07:42:21;12.37;;;8.20;;
6251;SDS011;3159;52.414;9.784;2023-09-12T07:44:48;11.97;;;8.27;;
6251;SDS011;3159;52.414;9.784;2023-09-12T07:47:18;9.47;;;8.10;;
6251;SDS011;3159;52.414;9.784;2023-09-12T07:49:45;10.17;;;7.97;;
6251;SDS011;3159;52.414;9.784;2023-09-12T07:52:18;9.53;;;8.30;;
6251;SDS011;3159;52.414;9.784;2023-09-12T07:54:45;12.30;;;8.07;;
6251;SDS011;3159;52.414;9.784;2023-09-12T07:57:12;9.17;;;7.30;;
6251;SDS011;3159;52.414;9.784;2023-09-12T07:59:39;12.00;;;7.70;;
6251;SDS011;3159;52.414;9.784;2023-09-12T08:02:06;7.53;;;6.73;;
6251;SDS011;3159;52.414;9.784;2023-09-12T08:04:34;10.67;;;7.30;;
6251;SDS011;3159;52.414;9.784;2023-09-12T08:07:02;8.63;;;7.20;;
6251;SDS011;3159;52.414;9.784;2023-09-12T08:12:15;6.80;;;6.10;;
6251;SDS011;3159;52.414;9.784;2023-09-12T08:14:42;7.93;;;6.67;;
6251;SDS011;3159;52.414;9.784;2023-09-12T08:17:10;9.47;;;6.73;;
6251;SDS011;3159;52.414;9.784;2023-09-12T08:19:38;7.33;;;6.53;;
6251;SDS011;3159;52.414;9.784;2023-09-12T08:22:06;7.60;;;6.90;;
6251;SDS011;3159;52.414;9.784;2023-09-12T08:24:33;6.80;;;6.10;;
6251;SDS011;3159;52.414;9.784;2023-09-12T08:27:00;7.47;;;6.70;;
6251;SDS011;3159;52.414;9.784;2023-09-12T08:29:28;9.00;;;7.47;;
6251;SDS011;3159;52.414;9.784;2023-09-12T08:31:57;8.97;;;7.63;;
6251;SDS011;3159;52.414;9.784;2023-09-12T08:34:25;11.07;;;7.93;;
6251;SDS011;3159;52.414;9.784;2023-09-12T08:36:53;9.33;;;8.33;;
6251;SDS011;3159;52.414;9.784;2023-09-12T08:39:23;8.13;;;7.33;;
6251;SDS011;3159;52.414;9.784;2023-09-12T08:41:51;8.73;;;7.73;;
6251;SDS011;3159;52.414;9.784;2023-09-12T08:44:19;9.00;;;7.47;;
6251;SDS011;3159;52.414;9.784;2023-09-12T08:46:47;8.73;;;7.83;;
6251;SDS011;3159;52.414;9.784;2023-09-12T08:49:14;8.90;;;8.10;;
6251;SDS011;3159;52.414;9.784;2023-09-12T08:51:42;9.50;;;8.47;;
6251;SDS011;3159;52.414;9.784;2023-09-12T08:54:11;9.67;;;7.97;;
6251;SDS011;3159;52.414;9.784;2023-09-12T08:56:39;9.27;;;7.63;;
6251;SDS011;3159;52.414;9.784;2023-09-12T08:59:07;8.90;;;8.10;;
6251;SDS011;3159;52.414;9.784;2023-09-12T09:01:36;9.83;;;8.47;;
6251;SDS011;3159;52.414;9.784;2023-09-12T09:04:03;11.43;;;9.50;;
6251;SDS011;3159;52.414;9.784;2023-09-12T09:06:31;10.40;;;9.17;;
6251;SDS011;3159;52.414;9.784;2023-09-12T09:09:02;11.47;;;9.30;;
6251;SDS011;3159;52.414;9.784;2023-09-12T09:11:33;10.67;;;9.60;;
6251;SDS011;3159;52.414;9.784;2023-09-12T09:14:00;10.73;;;8.63;;
6251;SDS011;3159;52.414;9.784;2023-09-12T09:16:28;7.37;;;6.50;;
6251;SDS011;3159;52.414;9.784;2023-09-12T09:18:56;4.90;;;4.40;;
6251;SDS011;3159;52.414;9.784;2023-09-12T09:21:26;5.37;;;4.53;;
6251;SDS011;3159;52.414;9.784;2023-09-12T09:23:55;4.33;;;3.67;;
6251;SDS011;3159;52.414;9.784;2023-09-12T09:26:24;4.20;;;3.63;;
6251;SDS011;3159;52.414;9.784;2023-09-12T09:29:03;4.20;;;3.73;;
6251;SDS011;3159;52.414;9.784;2023-09-12T09:31:30;4.93;;;3.60;;
6251;SDS011;3159;52.414;9.784;2023-09-12T09:33:58;4.63;;;3.97;;
6251;SDS011;3159;52.414;9.784;2023-09-12T09:36:27;3.90;;;3.50;;
6251;SDS011;3159;52.414;9.784;2023-09-12T09:38:56;3.83;;;3.53;;
6251;SDS011;3159;52.414;9.784;2023-09-12T09:41:24;4.63;;;3.87;;
6251;SDS011;3159;52.414;9.784;2023-09-12T09:43:52;5.40;;;3.63;;
6251;SDS011;3159;52.414;9.784;2023-09-12T09:46:21;5.17;;;4.20;;
6251;SDS011;3159;52.414;9.784;2023-09-12T09:48:48;4.50;;;4.10;;
6251;SDS011;3159;52.414;9.784;2023-09-12T09:51:16;4.80;;;4.30;;
6251;SDS011;3159;52.414;9.784;2023-09-12T09:53:44;5.90;;;4.30;;
6251;SDS011;3159;52.414;9.784;2023-09-12T09:56:13;5.07;;;4.30;;
6251;SDS011;3159;52.414;9.784;2023-09-12T09:58:47;5.13;;;4.63;;
6251;SDS011;3159;52.414;9.784;2023-09-12T10:01:16;5.73;;;4.43;;
6251;SDS011;3159;52.414;9.784;2023-09-12T10:03:46;5.57;;;4.73;;
6251;SDS011;3159;52.414;9.784;2023-09-12T10:06:15;5.97;;;4.70;;
6251;SDS011;3159;52.414;9.784;2023-09-12T10:08:43;5.60;;;4.60;;
6251;SDS011;3159;52.414;9.784;2023-09-12T10:11:11;4.63;;;4.13;;
6251;SDS011;3159;52.414;9.784;2023-09-12T10:13:40;5.47;;;4.93;;
6251;SDS011;3159;52.414;9.784;2023-09-12T10:16:12;5.77;;;4.77;;
6251;SDS011;3159;52.414;9.784;2023-09-12T10:18:43;4.83;;;4.37;;
6251;SDS011;3159;52.414;9.784;2023-09-12T10:21:21;6.47;;;5.23;;
6251;SDS011;3159;52.414;9.784;2023-09-12T10:23:53;5.77;;;5.03;;
6251;SDS011;3159;52.414;9.784;2023-09-12T10:26:22;6.70;;;5.10;;
6251;SDS011;3159;52.414;9.784;2023-09-12T10:28:50;5.83;;;5.07;;
6251;SDS011;3159;52.414;9.784;2023-09-12T10:31:18;5.10;;;4.60;;
6251;SDS011;3159;52.414;9.784;2023-09-12T10:33:45;5.53;;;4.67;;
6251;SDS011;3159;52.414;9.784;2023-09-12T10:36:15;6.80;;;5.60;;
6251;SDS011;3159;52.414;9.784;2023-09-12T10:38:45;6.00;;;5.40;;
6251;SDS011;3159;52.414;9.784;2023-09-12T10:41:14;5.90;;;4.90;;
6251;SDS011;3159;52.414;9.784;2023-09-12T10:43:42;5.30;;;4.80;;
6251;SDS011;3159;52.414;9.784;2023-09-12T10:46:14;5.80;;;5.20;;
6251;SDS011;3159;52.414;9.784;2023-09-12T10:48:42;4.90;;;4.40;;
6251;SDS011;3159;52.414;9.784;2023-09-12T10:51:10;5.23;;;4.47;;
6251;SDS011;3159;52.414;9.784;2023-09-12T10:53:44;5.80;;;4.57;;
6251;SDS011;3159;52.414;9.784;2023-09-12T10:56:15;4.63;;;4.23;;
6251;SDS011;3159;52.414;9.784;2023-09-12T11:01:40;4.27;;;3.77;;
6251;SDS011;3159;52.414;9.784;2023-09-12T11:07:01;4.17;;;3.77;;
6251;SDS011;3159;52.414;9.784;2023-09-12T11:09:51;4.20;;;3.80;;
6251;SDS011;3159;52.414;9.784;2023-09-12T11:12:46;4.57;;;4.00;;
6251;SDS011;3159;52.414;9.784;2023-09-12T11:15:14;4.17;;;3.77;;
6251;SDS011;3159;52.414;9.784;2023-09-12T11:17:42;4.37;;;3.97;;
6251;SDS011;3159;52.414;9.784;2023-09-12T11:20:09;4.77;;;4.13;;
6251;SDS011;3159;52.414;9.784;2023-09-12T11:22:39;5.30;;;4.80;;
6251;SDS011;3159;52.414;9.784;2023-09-12T11:25:15;5.27;;;4.77;;
6251;SDS011;3159;52.414;9.784;2023-09-12T11:27:44;4.73;;;4.30;;
6251;SDS011;3159;52.414;9.784;2023-09-12T11:30:12;5.53;;;5.03;;
6251;SDS011;3159;52.414;9.784;2023-09-12T11:32:40;7.37;;;4.87;;
6251;SDS011;3159;52.414;9.784;2023-09-12T11:35:11;6.67;;;5.17;;
6251;SDS011;3159;52.414;9.784;2023-09-12T11:37:41;6.20;;;5.60;;
6251;SDS011;3159;52.414;9.784;2023-09-12T11:40:15;6.43;;;5.73;;
6251;SDS011;3159;52.414;9.784;2023-09-12T11:42:43;6.27;;;5.73;;
6251;SDS011;3159;52.414;9.784;2023-09-12T11:45:11;6.77;;;6.07;;
6251;SDS011;3159;52.414;9.784;2023-09-12T11:47:39;6.37;;;5.77;;
6251;SDS011;3159;52.414;9.784;2023-09-12T11:50:07;8.47;;;6.97;;
6251;SDS011;3159;52.414;9.784;2023-09-12T11:52:36;7.27;;;6.57;;
6251;SDS011;3159;52.414;9.784;2023-09-12T11:55:05;6.97;;;6.27;;
6251;SDS011;3159;52.414;9.784;2023-09-12T11:57:33;7.47;;;6.17;;
6251;SDS011;3159;52.414;9.784;2023-09-12T12:00:02;8.23;;;6.77;;
6251;SDS011;3159;52.414;9.784;2023-09-12T12:02:33;6.33;;;5.73;;
6251;SDS011;3159;52.414;9.784;2023-09-12T12:05:00;7.00;;;6.40;;
6251;SDS011;3159;52.414;9.784;2023-09-12T12:07:29;6.93;;;6.13;;
6251;SDS011;3159;52.414;9.784;2023-09-12T12:09:57;7.10;;;6.27;;
6251;SDS011;3159;52.414;9.784;2023-09-12T12:12:25;6.60;;;5.73;;
6251;SDS011;3159;52.414;9.784;2023-09-12T12:14:52;8.07;;;6.37;;
6251;SDS011;3159;52.414;9.784;2023-09-12T12:17:19;6.97;;;5.70;;
6251;SDS011;3159;52.414;9.784;2023-09-12T12:19:46;6.77;;;5.77;;
6251;SDS011;3159;52.414;9.784;2023-09-12T12:22:13;8.43;;;5.87;;
6251;SDS011;3159;52.414;9.784;2023-09-12T12:24:41;9.13;;;6.73;;
6251;SDS011;3159;52.414;9.784;2023-09-12T12:27:11;7.47;;;6.73;;
6251;SDS011;3159;52.414;9.784;2023-09-12T12:29:42;8.03;;;7.23;;
6251;SDS011;3159;52.414;9.784;2023-09-12T12:32:09;8.07;;;7.27;;
6251;SDS011;3159;52.414;9.784;2023-09-12T12:34:37;8.77;;;6.40;;
6251;SDS011;3159;52.414;9.784;2023-09-12T12:37:03;6.70;;;6.10;;
6251;SDS011;3159;52.414;9.784;2023-09-12T12:39:31;6.03;;;5.37;;
6251;SDS011;3159;52.414;9.784;2023-09-12T12:41:58;6.57;;;5.97;;
6251;SDS011;3159;52.414;9.784;2023-09-12T12:44:32;6.00;;;5.37;;
6251;SDS011;3159;52.414;9.784;2023-09-12T12:47:07;6.27;;;5.47;;
6251;SDS011;3159;52.414;9.784;2023-09-12T12:49:37;6.90;;;5.33;;
6251;SDS011;3159;52.414;9.784;2023-09-12T12:52:05;6.67;;;5.97;;
6251;SDS011;3159;52.414;9.784;2023-09-12T12:54:32;5.80;;;5.20;;
6251;SDS011;3159;52.414;9.784;2023-09-12T12:56:59;5.90;;;5.00;;
6251;SDS011;3159;52.414;9.784;2023-09-12T12:59:28;6.13;;;5.53;;
6251;SDS011;3159;52.414;9.784;2023-09-12T13:01:59;6.90;;;5.40;;
6251;SDS011;3159;52.414;9.784;2023-09-12T13:04:29;5.47;;;4.83;;
6251;SDS011;3159;52.414;9.784;2023-09-12T13:07:01;5.77;;;5.27;;
6251;SDS011;3159;52.414;9.784;2023-09-12T13:09:29;6.50;;;4.70;;
6251;SDS011;3159;52.414;9.784;2023-09-12T13:11:56;5.80;;;5.27;;
6251;SDS011;3159;52.414;9.784;2023-09-12T13:14:23;8.03;;;5.37;;
6251;SDS011;3159;52.414;9.784;2023-09-12T13:16:56;5.33;;;4.83;;
6251;SDS011;3159;52.414;9.784;2023-09-12T13:19:23;7.17;;;5.93;;
6251;SDS011;3159;52.414;9.784;2023-09-12T13:21:54;8.17;;;6.63;;
6251;SDS011;3159;52.414;9.784;2023-09-12T13:24:20;7.27;;;6.53;;
6251;SDS011;3159;52.414;9.784;2023-09-12T13:26:48;6.27;;;5.43;;
6251;SDS011;3159;52.414;9.784;2023-09-12T13:29:15;6.33;;;5.60;;
6251;SDS011;3159;52.414;9.784;2023-09-12T13:31:42;6.53;;;5.43;;
6251;SDS011;3159;52.414;9.784;2023-09-12T13:34:09;5.37;;;4.87;;
6251;SDS011;3159;52.414;9.784;2023-09-12T13:36:36;4.20;;;3.90;;
6251;SDS011;3159;52.414;9.784;2023-09-12T13:39:05;6.00;;;4.37;;
6251;SDS011;3159;52.414;9.784;2023-09-12T13:41:33;6.50;;;4.53;;
6251;SDS011;3159;52.414;9.784;2023-09-12T13:44:01;6.30;;;4.90;;
6251;SDS011;3159;52.414;9.784;2023-09-12T13:46:28;5.47;;;4.70;;
6251;SDS011;3159;52.414;9.784;2023-09-12T13:48:55;4.57;;;4.17;;
6251;SDS011;3159;52.414;9.784;2023-09-12T13:51:25;5.07;;;4.57;;
6251;SDS011;3159;52.414;9.784;2023-09-12T13:53:52;5.83;;;4.93;;
6251;SDS011;3159;52.414;9.784;2023-09-12T13:56:21;5.37;;;4.87;;
6251;SDS011;3159;52.414;9.784;2023-09-12T13:58:48;5.07;;;4.57;;
6251;SDS011;3159;52.414;9.784;2023-09-12T14:01:16;5.20;;;4.77;;
6251;SDS011;3159;52.414;9.784;2023-09-12T14:03:44;5.60;;;5.10;;
6251;SDS011;3159;52.414;9.784;2023-09-12T14:06:11;5.50;;;4.73;;
6251;SDS011;3159;52.414;9.784;2023-09-12T14:08:38;5.87;;;4.57;;
6251;SDS011;3159;52.414;9.784;2023-09-12T14:11:05;5.00;;;4.20;;
6251;SDS011;3159;52.414;9.784;2023-09-12T14:13:34;4.30;;;4.00;;
6251;SDS011;3159;52.414;9.784;2023-09-12T14:16:01;5.87;;;4.10;;
6251;SDS011;3159;52.414;9.784;2023-09-12T14:18:27;5.20;;;4.70;;
6251;SDS011;3159;52.414;9.784;2023-09-12T14:20:54;4.10;;;3.70;;
6251;SDS011;3159;52.414;9.784;2023-09-12T14:23:21;5.60;;;3.90;;
6251;SDS011;3159;52.414;9.784;2023-09-12T14:25:48;3.97;;;3.63;;
6251;SDS011;3159;52.414;9.784;2023-09-12T14:28:16;4.10;;;3.73;;
6251;SDS011;3159;52.414;9.784;2023-09-12T14:30:45;4.10;;;3.70;;
6251;SDS011;3159;52.414;9.784;2023-09-12T14:33:14;4.13;;;3.73;;
6251;SDS011;3159;52.414;9.784;2023-09-12T14:35:42;4.50;;;3.67;;
6251;SDS011;3159;52.414;9.784;2023-09-12T14:38:10;4.37;;;3.70;;
6251;SDS011;3159;52.414;9.784;2023-09-12T14:40:37;5.60;;;4.00;;
6251;SDS011;3159;52.414;9.784;2023-09-12T14:43:04;4.37;;;3.97;;
6251;SDS011;3159;52.414;9.784;2023-09-12T14:45:32;4.10;;;3.40;;
6251;SDS011;3159;52.414;9.784;2023-09-12T14:48:01;3.10;;;2.67;;
6251;SDS011;3159;52.414;9.784;2023-09-12T14:50:28;3.40;;;3.10;;
6251;SDS011;3159;52.414;9.784;2023-09-12T14:52:56;3.63;;;3.10;;
6251;SDS011;3159;52.414;9.784;2023-09-12T14:55:23;3.70;;;2.70;;
6251;SDS011;3159;52.414;9.784;2023-09-12T14:57:50;3.77;;;2.97;;
6251;SDS011;3159;52.414;9.784;2023-09-12T15:00:19;3.43;;;2.67;;
6251;SDS011;3159;52.414;9.784;2023-09-12T15:02:47;4.97;;;2.83;;
6251;SDS011;3159;52.414;9.784;2023-09-12T15:05:15;3.63;;;2.97;;
6251;SDS011;3159;52.414;9.784;2023-09-12T15:07:42;3.43;;;3.00;;
6251;SDS011;3159;52.414;9.784;2023-09-12T15:10:09;4.10;;;2.83;;
6251;SDS011;3159;52.414;9.784;2023-09-12T15:12:36;3.60;;;3.30;;
6251;SDS011;3159;52.414;9.784;2023-09-12T15:15:04;4.20;;;3.50;;
6251;SDS011;3159;52.414;9.784;2023-09-12T15:17:31;4.20;;;3.90;;
6251;SDS011;3159;52.414;9.784;2023-09-12T15:19:58;4.03;;;3.63;;
6251;SDS011;3159;52.414;9.784;2023-09-12T15:22:27;3.87;;;3.20;;
6251;SDS011;3159;52.414;9.784;2023-09-12T15:24:53;5.90;;;3.60;;
6251;SDS011;3159;52.414;9.784;2023-09-12T15:27:21;4.03;;;3.63;;